Time;durP1;ratioP1;P1;durP2;ratioP2;P2;SDS_P1;SDS_P2;PMS_P1;PMS_P2;Temp;Humidity;BMP_temperature;BMP_pressure;BME280_temperature;BME280_humidity;BME280_pressure;Samples;Min_cycle;Max_cycle;Signal;HPM_P1;HPM_P2
2023/10/18 00:00:24;;;;;;;0.73;0.60;;;20.90;59.00;;;;;;5101993;28;19912;-40
2023/10/18 00:02:53;;;;;;;0.43;0.40;;;20.90;59.10;;;;;;5096006;28;20040;-40
2023/10/18 00:05:21;;;;;;;0.50;0.50;;;20.80;59.00;;;;;;5099384;28;20024;-40
2023/10/18 00:07:51;;;;;;;;;;;20.80;58.90;;;;;;5095927;28;20028;-40
2023/10/18 00:10:18;;;;;;;0.77;0.55;;;20.80;58.90;;;;;;5093373;28;19908;-39
2023/10/18 00:12:45;;;;;;;1.25;0.50;;;20.80;59.10;;;;;;5094980;28;20085;-39
2023/10/18 00:15:14;;;;;;;;;;;20.70;59.00;;;;;;5101128;28;20115;-40
2023/10/18 00:17:40;;;;;;;0.57;0.50;;;20.70;59.00;;;;;;5090224;28;19999;-42
2023/10/18 00:20:13;;;;;;;1.02;0.50;;;20.70;59.20;;;;;;5098018;28;20044;-40
2023/10/18 00:22:43;;;;;;;1.30;0.60;;;20.70;59.00;;;;;;5086063;28;20054;-40
2023/10/18 00:25:10;;;;;;;1.55;0.60;;;20.70;59.20;;;;;;5094416;28;20510;-39
2023/10/18 00:27:37;;;;;;;;;;;20.60;59.00;;;;;;5093086;28;20044;-39
2023/10/18 00:30:11;;;;;;;0.68;0.60;;;20.60;59.10;;;;;;5088181;28;19923;-39
2023/10/18 00:32:42;;;;;;;0.75;0.70;;;20.60;59.20;;;;;;5090966;28;20378;-39
2023/10/18 00:37:54;;;;;;;0.80;0.60;;;20.60;59.10;;;;;;5089358;28;20051;-39
2023/10/18 00:43:26;;;;;;;0.65;0.60;;;20.50;59.20;;;;;;5089247;28;20036;-39
2023/10/18 00:45:54;;;;;;;1.17;0.60;;;20.50;59.30;;;;;;5088620;28;20035;-38
2023/10/18 00:48:27;;;;;;;0.93;0.70;;;20.50;59.40;;;;;;5096943;28;20044;-39
2023/10/18 00:50:57;;;;;;;0.95;0.70;;;20.40;59.30;;;;;;5099586;28;20030;-39
2023/10/18 00:53:33;;;;;;;0.80;0.60;;;20.40;59.30;;;;;;5084288;28;20036;-39
2023/10/18 00:56:00;;;;;;;1.13;0.75;;;20.40;59.20;;;;;;5097990;28;20036;-39
2023/10/18 00:58:30;;;;;;;2.20;0.70;;;20.40;59.30;;;;;;5091888;28;20052;-39
2023/10/18 01:00:58;;;;;;;0.70;0.70;;;20.30;59.40;;;;;;5090685;28;20340;-39
2023/10/18 01:03:29;;;;;;;0.63;0.63;;;20.30;59.30;;;;;;5093000;28;20100;-39
2023/10/18 01:06:16;;;;;;;0.98;0.80;;;20.30;59.20;;;;;;5092380;28;20635;-39
2023/10/18 01:08:47;;;;;;;1.02;0.70;;;20.30;59.50;;;;;;5096586;28;20048;-39
2023/10/18 01:11:14;;;;;;;1.38;0.82;;;20.40;60.30;;;;;;5096754;28;20039;-39
2023/10/18 01:13:48;;;;;;;0.70;0.70;;;20.40;59.60;;;;;;5086646;28;20041;-39
2023/10/18 01:16:20;;;;;;;2.13;0.80;;;20.30;59.50;;;;;;5094426;28;20115;-39
2023/10/18 01:18:48;;;;;;;1.20;0.70;;;20.30;59.50;;;;;;5096482;28;20503;-39
2023/10/18 01:21:17;;;;;;;0.73;0.68;;;20.30;59.60;;;;;;5100483;28;20028;-39
2023/10/18 01:23:53;;;;;;;1.08;0.80;;;20.20;59.60;;;;;;5097746;28;20031;-39
2023/10/18 01:26:26;;;;;;;1.10;0.90;;;20.20;59.50;;;;;;5096110;28;20029;-39
2023/10/18 01:28:54;;;;;;;1.25;0.80;;;20.20;59.50;;;;;;5103933;28;20032;-39
2023/10/18 01:31:20;;;;;;;1.05;0.60;;;20.20;59.60;;;;;;5082875;28;20035;-39
2023/10/18 01:33:47;;;;;;;0.73;0.65;;;20.30;59.90;;;;;;5099036;28;20072;-40
2023/10/18 01:36:15;;;;;;;0.90;0.52;;;20.30;60.00;;;;;;5093374;28;20077;-40
2023/10/18 01:38:46;;;;;;;0.70;0.70;;;20.30;59.90;;;;;;5089547;28;20107;-41
2023/10/18 01:41:25;;;;;;;0.93;0.70;;;20.20;59.90;;;;;;5102938;28;20044;-40
2023/10/18 01:43:58;;;;;;;0.68;0.50;;;20.20;59.80;;;;;;5094251;28;20033;-40
2023/10/18 01:46:24;;;;;;;1.13;0.85;;;20.20;59.80;;;;;;5100436;28;20032;-39
2023/10/18 01:48:51;;;;;;;1.17;0.90;;;20.20;59.80;;;;;;5100291;28;20500;-39
2023/10/18 01:51:19;;;;;;;1.20;0.50;;;20.20;59.80;;;;;;5096082;28;20119;-40
2023/10/18 01:53:46;;;;;;;1.05;0.90;;;20.10;59.70;;;;;;5097143;28;20044;-39
2023/10/18 01:56:14;;;;;;;1.02;0.50;;;20.10;59.80;;;;;;5102845;28;20052;-40
2023/10/18 01:58:41;;;;;;;0.70;0.60;;;20.20;60.20;;;;;;5089438;28;20468;-40
2023/10/18 02:01:16;;;;;;;1.00;0.60;;;20.20;60.00;;;;;;5096038;28;20028;-40
2023/10/18 02:03:44;;;;;;;0.98;0.60;;;20.20;60.10;;;;;;5085721;28;20044;-40
2023/10/18 02:06:14;;;;;;;0.70;0.60;;;20.20;60.00;;;;;;5100253;28;20107;-39
2023/10/18 02:08:41;;;;;;;1.15;0.80;;;20.10;59.90;;;;;;5086039;28;20028;-39
2023/10/18 02:11:11;;;;;;;1.10;0.80;;;20.10;60.00;;;;;;5094680;28;20062;-40
2023/10/18 02:13:41;;;;;;;0.90;0.63;;;20.10;59.90;;;;;;5103263;28;20496;-39
2023/10/18 02:16:19;;;;;;;0.70;0.70;;;20.10;59.90;;;;;;5095256;28;20043;-40
2023/10/18 02:18:49;;;;;;;0.73;0.50;;;20.10;60.10;;;;;;5088644;28;20016;-40
2023/10/18 02:21:16;;;;;;;1.55;0.57;;;20.10;60.40;;;;;;5095721;28;20594;-40
2023/10/18 02:23:43;;;;;;;1.08;0.68;;;20.20;60.40;;;;;;5103568;28;20024;-40
2023/10/18 02:28:53;;;;;;;1.70;0.40;;;20.10;60.00;;;;;;5092804;28;20095;-39
2023/10/18 02:31:23;;;;;;;0.60;0.52;;;20.10;60.00;;;;;;5094405;28;20032;-39
2023/10/18 02:33:49;;;;;;;0.55;0.45;;;20.00;60.00;;;;;;5091236;28;20044;-39
2023/10/18 02:36:32;;;;;;;0.67;0.60;;;20.00;59.90;;;;;;5084793;28;20091;-39
2023/10/18 02:38:59;;;;;;;0.40;0.40;;;20.00;60.00;;;;;;5093650;28;20055;-39
2023/10/18 02:41:28;;;;;;;0.55;0.47;;;20.10;60.50;;;;;;5088440;28;20505;-38
2023/10/18 02:43:57;;;;;;;0.95;0.60;;;20.10;60.40;;;;;;5089806;28;20629;-40
2023/10/18 02:46:24;;;;;;;1.02;0.50;;;20.10;60.20;;;;;;5085119;28;20092;-40
2023/10/18 02:48:52;;;;;;;0.57;0.50;;;20.10;60.10;;;;;;5088508;28;20029;-40
2023/10/18 02:51:24;;;;;;;0.65;0.60;;;20.00;60.10;;;;;;5100200;28;20084;-40
2023/10/18 02:53:57;;;;;;;0.60;0.50;;;20.00;60.10;;;;;;5084937;28;20043;-39
2023/10/18 02:56:41;;;;;;;0.70;0.60;;;20.00;59.90;;;;;;5092461;28;20028;-40
2023/10/18 02:59:07;;;;;;;0.75;0.50;;;20.00;59.90;;;;;;5084738;28;20036;-40
2023/10/18 03:01:40;;;;;;;0.70;0.60;;;20.00;60.40;;;;;;5084791;28;20028;-40
2023/10/18 03:04:14;;;;;;;0.93;0.50;;;20.10;60.60;;;;;;5083225;28;20036;-40
2023/10/18 03:06:42;;;;;;;0.50;0.50;;;20.10;60.40;;;;;;5084120;28;20045;-40
2023/10/18 03:11:56;;;;;;;0.68;0.50;;;20.00;60.10;;;;;;5090556;28;20027;-40
2023/10/18 03:14:41;;;;;;;1.00;0.45;;;20.00;60.20;;;;;;5093509;28;20174;-40
2023/10/18 03:17:29;;;;;;;1.48;0.50;;;19.90;60.70;;;;;;5090846;28;20035;-40
2023/10/18 03:19:55;;;;;;;0.47;0.40;;;20.00;60.30;;;;;;5094615;28;20046;-40
2023/10/18 03:22:23;;;;;;;0.80;0.60;;;20.10;60.70;;;;;;5086678;28;20035;-39
2023/10/18 03:24:55;;;;;;;;;;;20.10;60.60;;;;;;5090648;28;20024;-40
2023/10/18 03:27:32;;;;;;;2.47;0.60;;;20.10;60.40;;;;;;5091408;28;19941;-39
2023/10/18 03:29:58;;;;;;;0.47;0.45;;;20.00;60.10;;;;;;5098290;28;20028;-39
2023/10/18 03:32:25;;;;;;;0.75;0.47;;;20.00;60.10;;;;;;5086506;28;20032;-39
2023/10/18 03:34:54;;;;;;;0.47;0.40;;;20.00;60.10;;;;;;5102165;28;20071;-38
2023/10/18 03:37:26;;;;;;;1.75;0.47;;;19.90;60.00;;;;;;5102315;28;20032;-38
2023/10/18 03:39:53;;;;;;;0.95;0.57;;;19.90;60.10;;;;;;5095794;28;20028;-39
2023/10/18 03:42:32;;;;;;;0.55;0.50;;;20.00;60.60;;;;;;5090384;28;20048;-39
2023/10/18 03:44:59;;;;;;;1.25;0.60;;;20.10;60.50;;;;;;5087806;28;20028;-40
2023/10/18 03:47:25;;;;;;;0.63;0.50;;;20.00;60.30;;;;;;5084263;28;20652;-40
2023/10/18 03:49:55;;;;;;;0.73;0.47;;;20.00;60.10;;;;;;5087008;28;20088;-40
2023/10/18 03:52:21;;;;;;;0.70;0.55;;;20.00;60.10;;;;;;5084662;28;20067;-39
2023/10/18 03:57:31;;;;;;;0.80;0.57;;;19.90;60.00;;;;;;5094553;28;20036;-40
2023/10/18 04:00:28;;;;;;;0.95;0.60;;;20.00;60.00;;;;;;5087750;28;20034;-39
2023/10/18 04:02:47;;;;;;;0.38;0.38;;;20.00;60.50;;;;;;5088909;28;20415;-39
2023/10/18 04:05:33;;;;;;;0.85;0.50;;;20.00;60.40;;;;;;5100057;28;20511;-39
2023/10/18 04:08:02;;;;;;;1.33;0.57;;;20.00;60.20;;;;;;5089589;28;20027;-39
2023/10/18 04:10:31;;;;;;;2.92;0.55;;;20.00;60.00;;;;;;5098870;28;20104;-39
2023/10/18 04:12:57;;;;;;;0.65;0.60;;;19.90;60.00;;;;;;5089578;28;20040;-39
2023/10/18 04:15:28;;;;;;;0.50;0.50;;;19.90;60.00;;;;;;5100614;28;20036;-39
2023/10/18 04:20:37;;;;;;;0.73;0.50;;;19.90;60.00;;;;;;5091193;28;20034;-40
2023/10/18 04:23:14;;;;;;;0.63;0.50;;;20.00;60.50;;;;;;5084106;28;20112;-39
2023/10/18 04:28:31;;;;;;;0.40;0.40;;;20.00;60.30;;;;;;5090477;28;20050;-39
2023/10/18 04:31:00;;;;;;;0.85;0.63;;;20.00;60.10;;;;;;5096310;28;20025;-39
2023/10/18 04:33:41;;;;;;;0.95;0.60;;;19.90;59.90;;;;;;5100172;28;20035;-39
2023/10/18 04:36:11;;;;;;;0.80;0.50;;;19.90;59.90;;;;;;5086625;28;20044;-39
2023/10/18 04:38:47;;;;;;;0.63;0.43;;;19.90;59.90;;;;;;5102668;28;20024;-39
2023/10/18 04:41:23;;;;;;;1.00;0.50;;;19.90;59.90;;;;;;5094726;28;20099;-39
2023/10/18 04:43:51;;;;;;;1.27;0.50;;;19.90;60.00;;;;;;5100008;28;20021;-40
2023/10/18 04:46:22;;;;;;;0.50;0.40;;;20.00;60.40;;;;;;5102210;28;20058;-39
2023/10/18 04:49:00;;;;;;;0.40;0.40;;;20.00;60.30;;;;;;5095761;28;20131;-39
2023/10/18 04:51:27;;;;;;;0.55;0.40;;;20.00;59.90;;;;;;5103536;28;21550;-40
2023/10/18 04:54:03;;;;;;;0.50;0.43;;;19.90;59.90;;;;;;5104855;28;20044;-39
2023/10/18 04:56:38;;;;;;;1.33;0.80;;;19.90;59.90;;;;;;5095466;28;20024;-39
2023/10/18 05:04:20;;;;;;;0.50;0.50;;;19.90;60.20;;;;;;5094725;28;20036;-39
2023/10/18 05:06:56;;;;;;;1.03;0.60;;;20.00;60.30;;;;;;5098778;28;20031;-40
2023/10/18 05:09:32;;;;;;;1.38;0.50;;;20.00;60.20;;;;;;5102941;28;20276;-39
2023/10/18 05:14:44;;;;;;;0.52;0.50;;;19.90;59.80;;;;;;5087288;28;20036;-39
2023/10/18 05:17:11;;;;;;;0.77;0.65;;;19.90;59.80;;;;;;5100734;28;20031;-39
2023/10/18 05:19:43;;;;;;;0.73;0.70;;;19.90;59.80;;;;;;5098505;28;20043;-40
2023/10/18 05:22:14;;;;;;;0.70;0.60;;;19.80;59.90;;;;;;5096763;28;20060;-39
2023/10/18 05:24:41;;;;;;;0.55;0.43;;;19.90;60.20;;;;;;5097421;28;20028;-39
2023/10/18 05:27:19;;;;;;;0.93;0.80;;;20.00;60.40;;;;;;5096826;28;20036;-40
2023/10/18 05:29:52;;;;;;;0.65;0.60;;;20.00;60.20;;;;;;5094240;28;20025;-40
2023/10/18 05:35:21;;;;;;;0.75;0.70;;;20.00;59.70;;;;;;5086676;28;20036;-40
2023/10/18 05:37:50;;;;;;;0.65;0.60;;;19.90;59.70;;;;;;5101833;28;20033;-40
2023/10/18 05:43:50;;;;;;;0.80;0.60;;;19.80;59.80;;;;;;5097712;28;20036;-40
2023/10/18 05:46:07;;;;;;;0.65;0.50;;;19.90;60.00;;;;;;5090237;28;20062;-40
2023/10/18 05:48:40;;;;;;;0.82;0.60;;;20.00;60.10;;;;;;5099682;28;20119;-40
2023/10/18 05:51:26;;;;;;;1.15;0.80;;;20.00;60.00;;;;;;5102937;28;20040;-41
2023/10/18 05:54:04;;;;;;;1.98;0.77;;;19.90;59.70;;;;;;5097042;28;20032;-40
2023/10/18 05:56:33;;;;;;;0.80;0.50;;;19.90;59.70;;;;;;5094126;28;20101;-40
2023/10/18 05:59:27;;;;;;;0.60;0.50;;;19.80;59.50;;;;;;5092728;28;20051;-40
2023/10/18 06:01:54;;;;;;;1.02;0.70;;;19.80;59.60;;;;;;5091314;28;20024;-40
2023/10/18 06:04:37;;;;;;;0.60;0.50;;;19.80;59.80;;;;;;5085809;28;20122;-40
2023/10/18 06:07:10;;;;;;;0.60;0.60;;;19.90;60.00;;;;;;5092792;28;20029;-40
2023/10/18 06:12:40;;;;;;;1.10;0.60;;;19.90;60.00;;;;;;5061584;28;20039;-40
2023/10/18 06:15:13;;;;;;;0.80;0.70;;;19.90;59.70;;;;;;5061925;28;20063;-40
2023/10/18 06:20:45;;;;;;;1.00;0.60;;;19.80;59.50;;;;;;5058317;28;20029;-40
2023/10/18 06:23:08;;;;;;;0.75;0.70;;;19.80;59.50;;;;;;5053782;28;20037;-40
2023/10/18 06:25:44;;;;;;;0.93;0.60;;;19.80;59.80;;;;;;5061806;28;20044;-40
2023/10/18 06:28:11;;;;;;;0.93;0.68;;;19.90;60.00;;;;;;5060538;28;20084;-40
2023/10/18 06:30:40;;;;;;;2.10;0.65;;;19.90;60.00;;;;;;5061268;28;20072;-40
2023/10/18 06:33:12;;;;;;;0.75;0.60;;;19.90;60.00;;;;;;5061110;28;20258;-40
2023/10/18 06:35:53;;;;;;;1.02;0.63;;;19.90;59.70;;;;;;5061541;28;20044;-40
2023/10/18 06:38:23;;;;;;;1.38;0.70;;;19.90;59.60;;;;;;5060512;28;20025;-40
2023/10/18 06:40:53;;;;;;;1.88;0.75;;;19.80;59.50;;;;;;5060879;28;20039;-41
2023/10/18 06:43:22;;;;;;;1.17;0.80;;;19.80;59.50;;;;;;5061036;28;20040;-39
2023/10/18 06:45:50;;;;;;;0.82;0.73;;;19.80;59.80;;;;;;5061275;28;20027;-38
2023/10/18 06:48:17;;;;;;;1.00;0.60;;;19.90;60.00;;;;;;5078275;28;20571;-39
2023/10/18 06:50:46;;;;;;;1.10;0.70;;;19.90;59.90;;;;;;5085479;28;20036;-39
2023/10/18 06:53:18;;;;;;;1.15;0.68;;;19.90;59.80;;;;;;5085258;28;20044;-39
2023/10/18 06:55:44;;;;;;;2.55;0.60;;;19.90;59.60;;;;;;5091206;28;20155;-39
2023/10/18 06:58:13;;;;;;;1.00;0.60;;;19.80;59.50;;;;;;5084578;28;20585;-39
2023/10/18 07:00:43;;;;;;;2.00;0.70;;;19.80;59.50;;;;;;5087326;28;20032;-39
2023/10/18 07:06:24;;;;;;;0.73;0.50;;;19.80;59.70;;;;;;5089622;28;20076;-40
2023/10/18 07:08:51;;;;;;;0.70;0.50;;;19.90;59.90;;;;;;5084408;28;20547;-39
2023/10/18 07:11:18;;;;;;;1.70;0.55;;;19.90;59.80;;;;;;5100940;28;20039;-39
2023/10/18 07:13:48;;;;;;;1.15;0.65;;;19.90;59.70;;;;;;5084618;28;20037;-40
2023/10/18 07:16:38;;;;;;;0.60;0.52;;;19.90;59.60;;;;;;5083668;28;20024;-39
2023/10/18 07:21:46;;;;;;;0.90;0.70;;;19.80;59.50;;;;;;5040890;28;20040;-39
2023/10/18 07:24:12;;;;;;;0.65;0.65;;;19.70;59.40;;;;;;5039330;28;20567;-40
2023/10/18 07:26:39;;;;;;;1.15;0.60;;;19.80;59.70;;;;;;5039898;28;20025;-39
2023/10/18 07:29:09;;;;;;;1.42;0.50;;;19.80;59.80;;;;;;5024142;28;20253;-39
2023/10/18 07:31:47;;;;;;;1.00;0.80;;;19.90;59.80;;;;;;5040244;28;20030;-40
2023/10/18 07:34:25;;;;;;;1.75;0.80;;;19.90;59.80;;;;;;5040288;28;20045;-39
2023/10/18 07:36:54;;;;;;;1.60;0.80;;;19.90;59.40;;;;;;5035361;28;20057;-39
2023/10/18 07:39:24;;;;;;;1.27;0.63;;;19.80;59.40;;;;;;5039854;28;20060;-39
2023/10/18 07:41:55;;;;;;;1.15;0.82;;;19.80;59.40;;;;;;5040146;28;20119;-40
2023/10/18 07:44:21;;;;;;;1.20;0.70;;;19.70;59.60;;;;;;5040084;28;20045;-40
2023/10/18 07:46:47;;;;;;;0.90;0.77;;;19.80;59.70;;;;;;5040479;28;20044;-40
2023/10/18 07:49:16;;;;;;;1.05;0.65;;;19.90;59.70;;;;;;5040040;28;20045;-39
2023/10/18 07:51:49;;;;;;;1.02;0.80;;;19.90;59.60;;;;;;5033935;28;20631;-40
2023/10/18 07:54:16;;;;;;;1.15;1.00;;;19.80;59.30;;;;;;5039627;28;20149;-40
2023/10/18 07:56:54;;;;;;;1.10;0.80;;;19.80;59.30;;;;;;5074333;28;20052;-40
2023/10/18 07:59:30;;;;;;;;;;;19.80;59.20;;;;;;5091801;28;20048;-39
2023/10/18 08:02:13;;;;;;;2.42;0.88;;;19.70;59.20;;;;;;5094807;28;19912;-39
2023/10/18 08:04:40;;;;;;;0.90;0.80;;;19.70;59.40;;;;;;5094543;28;20024;-39
2023/10/18 08:07:15;;;;;;;1.05;0.63;;;19.80;59.70;;;;;;5094350;28;20131;-39
2023/10/18 08:09:43;;;;;;;1.83;0.80;;;19.90;59.60;;;;;;5086109;28;20032;-39
2023/10/18 08:15:13;;;;;;;1.10;0.70;;;19.80;59.30;;;;;;5085859;28;20079;-40
2023/10/18 08:22:50;;;;;;;1.30;0.88;;;19.70;59.40;;;;;;5094498;28;20080;-39
2023/10/18 08:25:23;;;;;;;0.82;0.80;;;19.80;59.60;;;;;;5088739;28;20037;-40
2023/10/18 08:27:53;;;;;;;1.13;0.70;;;19.90;59.60;;;;;;5094843;28;20024;-40
2023/10/18 08:30:24;;;;;;;1.42;0.80;;;19.90;59.60;;;;;;5089567;28;20036;-39
2023/10/18 08:32:53;;;;;;;0.88;0.80;;;19.80;59.30;;;;;;5099576;28;20051;-39
2023/10/18 08:35:20;;;;;;;1.70;1.10;;;19.80;59.20;;;;;;5087680;28;20041;-40
2023/10/18 08:37:47;;;;;;;0.85;0.80;;;19.70;59.10;;;;;;5098443;28;20031;-40
2023/10/18 08:41:05;;;;;;;1.10;0.80;;;19.70;59.10;;;;;;5104018;28;20056;-40
2023/10/18 08:43:15;;;;;;;1.58;0.80;;;19.70;59.40;;;;;;5081801;28;20090;-40
2023/10/18 08:45:47;;;;;;;1.08;0.90;;;19.80;59.60;;;;;;5086787;28;20021;-40
2023/10/18 08:48:17;;;;;;;1.45;0.90;;;19.80;59.40;;;;;;5095089;28;20481;-39
2023/10/18 08:50:43;;;;;;;1.65;1.00;;;19.80;59.20;;;;;;5091337;28;20042;-40
2023/10/18 08:53:10;;;;;;;1.48;0.88;;;19.80;59.20;;;;;;5088802;28;20029;-39
2023/10/18 08:55:45;;;;;;;1.50;0.97;;;19.70;59.00;;;;;;5089983;28;20047;-39
2023/10/18 08:58:22;;;;;;;1.27;0.80;;;19.70;59.00;;;;;;5090068;28;20269;-39
2023/10/18 09:03:24;;;;;;;1.08;0.80;;;19.70;59.40;;;;;;5089182;28;20082;-39
2023/10/18 09:06:14;;;;;;;1.08;0.85;;;19.80;59.50;;;;;;5091606;28;20055;-39
2023/10/18 09:09:09;;;;;;;1.35;1.00;;;19.80;59.30;;;;;;5092550;28;20040;-39
2023/10/18 09:11:36;;;;;;;1.88;1.00;;;19.80;59.10;;;;;;5098998;28;20060;-40
2023/10/18 09:14:08;;;;;;;1.85;1.00;;;19.70;58.90;;;;;;5087983;28;20028;-39
2023/10/18 09:16:47;;;;;;;1.95;1.08;;;19.70;59.00;;;;;;5093448;28;20021;-39
2023/10/18 09:19:13;;;;;;;1.75;0.88;;;19.70;59.20;;;;;;5094357;28;20117;-39
2023/10/18 09:24:15;;;;;;;3.05;1.33;;;19.80;59.40;;;;;;5094299;28;20020;-39
2023/10/18 09:26:43;;;;;;;1.15;0.80;;;19.80;59.30;;;;;;5093690;28;20372;-39
2023/10/18 09:29:10;;;;;;;1.40;1.08;;;19.80;59.10;;;;;;5100638;28;20056;-39
2023/10/18 09:32:03;;;;;;;1.63;1.10;;;19.70;58.90;;;;;;5093805;28;20029;-39
2023/10/18 09:34:38;;;;;;;1.30;1.00;;;19.70;58.90;;;;;;5094845;28;20078;-39
2023/10/18 09:37:13;;;;;;;1.20;1.05;;;19.70;59.10;;;;;;5086475;28;20024;-40
2023/10/18 09:39:43;;;;;;;1.00;0.80;;;19.70;59.80;;;;;;5092005;28;20473;-40
2023/10/18 09:42:12;;;;;;;1.50;0.90;;;19.80;59.40;;;;;;5094074;28;20585;-40
2023/10/18 09:44:41;;;;;;;1.80;0.93;;;19.80;59.40;;;;;;5089349;28;20040;-40
2023/10/18 09:47:08;;;;;;;1.25;0.82;;;19.80;59.10;;;;;;5096055;28;20036;-40
2023/10/18 09:49:34;;;;;;;1.00;0.82;;;19.70;58.90;;;;;;5093037;28;20058;-40
2023/10/18 09:52:03;;;;;;;1.83;1.20;;;19.70;58.70;;;;;;5093377;28;20028;-40
2023/10/18 09:54:34;;;;;;;1.98;1.30;;;19.70;58.80;;;;;;5101050;28;20035;-40
2023/10/18 09:57:00;;;;;;;1.60;1.30;;;19.70;59.00;;;;;;5089374;28;20050;-40
2023/10/18 09:59:27;;;;;;;1.42;1.05;;;19.70;59.20;;;;;;5101464;28;20065;-40
2023/10/18 10:02:17;;;;;;;1.95;1.17;;;19.80;59.30;;;;;;5098954;28;20473;-40
2023/10/18 10:04:43;;;;;;;1.50;1.23;;;19.80;59.20;;;;;;5089956;28;20043;-40
2023/10/18 10:07:28;;;;;;;2.00;1.20;;;19.80;58.90;;;;;;5087043;28;20036;-39
2023/10/18 10:10:07;;;;;;;1.67;1.20;;;19.80;58.80;;;;;;5097962;28;20127;-40
2023/10/18 10:12:34;;;;;;;1.85;1.15;;;19.70;58.70;;;;;;5096439;28;20028;-40
2023/10/18 10:15:00;;;;;;;1.45;1.00;;;19.70;58.80;;;;;;5091587;28;20108;-39
2023/10/18 10:17:28;;;;;;;1.25;1.15;;;19.70;59.10;;;;;;5102101;28;20028;-40
2023/10/18 10:20:10;;;;;;;1.10;0.98;;;19.70;59.10;;;;;;5090275;28;20029;-39
2023/10/18 10:22:41;;;;;;;1.55;1.10;;;19.80;59.10;;;;;;5091806;28;20032;-40
2023/10/18 10:25:11;;;;;;;1.15;0.90;;;19.80;58.90;;;;;;5091194;28;20063;-39
2023/10/18 10:32:50;;;;;;;1.38;1.02;;;19.60;58.60;;;;;;5096297;28;20028;-39
2023/10/18 10:35:24;;;;;;;1.58;1.08;;;19.70;58.90;;;;;;5102736;28;20028;-39
2023/10/18 10:38:21;;;;;;;1.50;1.15;;;19.70;59.00;;;;;;5089962;28;20077;-39
2023/10/18 10:41:05;;;;;;;2.22;1.00;;;19.80;59.20;;;;;;5096932;28;20052;-39
2023/10/18 10:43:52;;;;;;;1.45;1.10;;;19.80;59.10;;;;;;5095177;28;20036;-39
2023/10/18 10:46:37;;;;;;;1.40;0.90;;;19.80;58.80;;;;;;5093876;28;20028;-40
2023/10/18 10:49:28;;;;;;;1.30;1.15;;;19.70;58.70;;;;;;5088971;28;20037;-40
2023/10/18 10:51:56;;;;;;;1.48;1.00;;;19.70;58.60;;;;;;5097605;28;20097;-40
2023/10/18 10:54:26;;;;;;;2.05;1.10;;;19.70;58.90;;;;;;5092942;28;20067;-40
2023/10/18 10:56:53;;;;;;;1.42;1.10;;;19.70;59.00;;;;;;5088532;28;20022;-40
2023/10/18 10:59:22;;;;;;;;;;;19.80;59.20;;;;;;5086327;28;20036;-40
2023/10/18 11:04:57;;;;;;;1.40;1.13;;;19.80;58.70;;;;;;5100202;28;20028;-40
2023/10/18 11:07:25;;;;;;;1.77;1.30;;;19.70;58.50;;;;;;5094376;28;20024;-40
2023/10/18 11:09:59;;;;;;;1.77;1.23;;;19.70;58.50;;;;;;5102195;28;20032;-40
2023/10/18 11:12:27;;;;;;;2.55;1.50;;;19.70;58.70;;;;;;5097470;28;20048;-39
2023/10/18 11:14:53;;;;;;;1.70;1.08;;;19.70;58.90;;;;;;5102168;28;20091;-40
2023/10/18 11:17:23;;;;;;;1.30;1.10;;;19.80;59.00;;;;;;5093988;28;20105;-40
2023/10/18 11:19:53;;;;;;;1.20;0.90;;;19.80;58.90;;;;;;5090285;28;20040;-40
2023/10/18 11:22:29;;;;;;;1.60;1.00;;;19.80;58.70;;;;;;5091893;28;20051;-40
2023/10/18 11:24:56;;;;;;;1.67;1.27;;;19.70;58.60;;;;;;5096361;28;20118;-40
2023/10/18 11:27:25;;;;;;;1.63;1.40;;;19.60;58.40;;;;;;5092591;28;20032;-40
2023/10/18 11:30:13;;;;;;;2.28;1.05;;;19.60;58.50;;;;;;5049553;28;20036;-40
2023/10/18 11:32:40;;;;;;;1.45;1.20;;;19.60;58.80;;;;;;5096077;28;20488;-40
2023/10/18 11:35:16;;;;;;;1.77;1.30;;;19.70;59.00;;;;;;5097783;28;20054;-40
2023/10/18 11:37:44;;;;;;;2.20;1.30;;;19.80;59.00;;;;;;5083679;28;20576;-40
2023/10/18 11:40:21;;;;;;;1.58;1.10;;;19.70;58.70;;;;;;5097581;28;20111;-40
2023/10/18 11:43:10;;;;;;;2.42;1.20;;;19.80;58.50;;;;;;5092908;28;20108;-40
2023/10/18 11:45:40;;;;;;;1.77;1.52;;;19.70;58.40;;;;;;5086471;28;20032;-40
2023/10/18 11:48:06;;;;;;;1.75;1.15;;;19.60;58.50;;;;;;5094199;28;20028;-40
2023/10/18 11:50:39;;;;;;;1.45;1.00;;;19.70;58.80;;;;;;5092701;28;20024;-40
2023/10/18 11:53:12;;;;;;;2.95;1.38;;;19.70;58.90;;;;;;5090552;28;20048;-40
2023/10/18 11:55:59;;;;;;;1.08;0.85;;;19.80;59.00;;;;;;5091659;28;20032;-40
2023/10/18 11:58:29;;;;;;;1.38;0.95;;;19.80;58.80;;;;;;5093144;28;20102;-40
2023/10/18 12:00:58;;;;;;;2.17;1.60;;;19.70;58.50;;;;;;5096343;28;20154;-40
2023/10/18 12:03:27;;;;;;;2.25;1.35;;;19.70;58.40;;;;;;5090762;28;20476;-40
2023/10/18 12:05:57;;;;;;;1.90;1.27;;;19.70;58.40;;;;;;5096297;28;20481;-40
2023/10/18 12:08:23;;;;;;;1.52;1.10;;;19.60;58.50;;;;;;5092728;28;20033;-40
2023/10/18 12:10:50;;;;;;;1.53;1.30;;;19.70;58.70;;;;;;5092989;28;20036;-40
2023/10/18 12:13:20;;;;;;;1.60;1.30;;;19.70;58.80;;;;;;5090440;28;20311;-39
2023/10/18 12:15:47;;;;;;;1.83;1.40;;;19.70;58.80;;;;;;5097807;28;20051;-40
2023/10/18 12:18:16;;;;;;;1.73;1.27;;;19.80;58.60;;;;;;5090996;28;20477;-40
2023/10/18 12:20:45;;;;;;;1.90;1.40;;;19.80;58.40;;;;;;5087167;28;20066;-40
2023/10/18 12:23:18;;;;;;;1.98;1.33;;;19.70;58.30;;;;;;5094388;28;20028;-40
2023/10/18 12:25:48;;;;;;;1.58;1.48;;;19.60;58.20;;;;;;5086030;28;20029;-40
2023/10/18 12:28:19;;;;;;;1.70;1.13;;;19.70;58.60;;;;;;5091288;28;20024;-40
2023/10/18 12:31:12;;;;;;;1.60;1.30;;;19.70;58.80;;;;;;5094884;28;20032;-40
2023/10/18 12:33:48;;;;;;;3.10;1.52;;;19.70;58.80;;;;;;5100860;28;20034;-40
2023/10/18 12:36:22;;;;;;;1.63;1.30;;;19.80;58.60;;;;;;5093052;28;20044;-40
2023/10/18 12:38:55;;;;;;;1.50;1.27;;;19.70;58.30;;;;;;5094657;28;20054;-40
2023/10/18 12:41:31;;;;;;;3.15;1.40;;;19.70;58.20;;;;;;5088692;28;20052;-40
2023/10/18 12:44:02;;;;;;;1.92;1.38;;;19.60;58.30;;;;;;5094973;28;20475;-40
2023/10/18 12:46:29;;;;;;;1.67;1.10;;;19.70;58.50;;;;;;5098557;28;20037;-39
2023/10/18 12:48:57;;;;;;;1.50;1.20;;;19.70;58.80;;;;;;5089273;28;20544;-40
2023/10/18 12:51:30;;;;;;;1.38;1.10;;;19.70;58.80;;;;;;5099150;28;20024;-39
2023/10/18 12:54:02;;;;;;;1.80;1.20;;;19.70;58.70;;;;;;5095978;28;20059;-39
2023/10/18 12:58:58;;;;;;;2.03;1.35;;;19.70;58.30;;;;;;5089048;28;20059;-39
2023/10/18 13:03:59;;;;;;;1.65;1.20;;;19.70;58.50;;;;;;5097741;28;20368;-39
2023/10/18 13:06:35;;;;;;;1.70;1.00;;;19.70;58.70;;;;;;5096750;28;20031;-39
2023/10/18 13:11:44;;;;;;;1.77;1.17;;;19.80;58.70;;;;;;5100588;28;20036;-39
2023/10/18 13:14:14;;;;;;;2.35;1.40;;;19.80;58.50;;;;;;5104357;28;20110;-39
2023/10/18 13:16:42;;;;;;;1.88;1.30;;;19.70;58.30;;;;;;5097202;28;20642;-40
2023/10/18 13:19:08;;;;;;;1.90;1.45;;;19.70;58.20;;;;;;5097681;28;20111;-40
2023/10/18 13:21:34;;;;;;;1.95;1.40;;;19.70;58.40;;;;;;5101122;28;20473;-40
2023/10/18 13:24:11;;;;;;;3.30;1.20;;;19.70;58.70;;;;;;5094258;28;20072;-40
2023/10/18 13:26:42;;;;;;;1.60;1.15;;;19.70;58.80;;;;;;5090735;28;20038;-40
2023/10/18 13:29:15;;;;;;;1.42;1.33;;;19.80;58.80;;;;;;5104276;28;20025;-40
2023/10/18 13:31:44;;;;;;;1.27;1.02;;;19.80;58.50;;;;;;5091141;28;20047;-40
2023/10/18 13:34:18;;;;;;;1.58;1.17;;;19.70;58.30;;;;;;5103100;28;20040;-40
2023/10/18 13:36:48;;;;;;;1.50;1.20;;;19.70;58.20;;;;;;5084491;28;20033;-40
2023/10/18 13:39:16;;;;;;;1.65;1.30;;;19.70;58.20;;;;;;5097898;28;20053;-40
2023/10/18 13:41:49;;;;;;;2.10;1.40;;;19.70;58.50;;;;;;5085842;28;20075;-40
2023/10/18 13:44:19;;;;;;;1.58;1.33;;;19.80;58.80;;;;;;5093674;28;20035;-40
2023/10/18 13:46:50;;;;;;;1.50;1.00;;;19.80;58.80;;;;;;5099810;28;20025;-40
2023/10/18 13:49:17;;;;;;;1.55;1.05;;;19.80;58.80;;;;;;5085984;28;20087;-39
2023/10/18 13:51:45;;;;;;;1.50;1.20;;;19.80;58.50;;;;;;5098629;28;20020;-40
2023/10/18 13:54:15;;;;;;;2.58;1.23;;;19.80;58.40;;;;;;5095266;28;20066;-40
2023/10/18 13:56:41;;;;;;;1.35;1.25;;;19.80;58.30;;;;;;5095620;28;20450;-40
2023/10/18 13:59:08;;;;;;;2.40;1.23;;;19.70;58.30;;;;;;5088835;28;20065;-40
2023/10/18 14:01:34;;;;;;;1.38;1.00;;;19.70;58.70;;;;;;5104968;28;20043;-39
2023/10/18 14:04:01;;;;;;;1.30;0.93;;;19.80;58.90;;;;;;5097874;28;20851;-39
2023/10/18 14:06:30;;;;;;;1.75;1.38;;;19.90;58.90;;;;;;5102698;28;20043;-40
2023/10/18 14:08:59;;;;;;;2.33;1.30;;;19.90;58.80;;;;;;5102809;28;20024;-39
2023/10/18 14:11:26;;;;;;;1.13;1.00;;;19.90;58.50;;;;;;5097580;28;20044;-40
2023/10/18 14:13:55;;;;;;;2.35;1.40;;;19.80;58.40;;;;;;5096454;28;20044;-40
2023/10/18 14:16:21;;;;;;;2.35;1.30;;;19.80;58.40;;;;;;5095885;28;20036;-40
2023/10/18 14:18:51;;;;;;;1.80;1.25;;;19.80;58.60;;;;;;5097283;28;20024;-40
2023/10/18 14:21:19;;;;;;;2.10;1.17;;;19.80;58.90;;;;;;5103136;28;20036;-40
2023/10/18 14:23:54;;;;;;;1.48;1.17;;;19.90;59.00;;;;;;5088954;28;20032;-39